DRRN/NIM METAR and TAF weather

Enter ICAO airport designator
Station Type Date Time Source
DRRN METAR 2021/01/16 02:00 UTC NOAA

DRRN 160200Z VRB01KT CAVOK 22/04 Q1010 NOSIG


Station Type Date Time Source
DRRN Decoded METAR 2021/01/16 02:00 UTC NOAA

Niamey-Aero, Niger (DRRN) 13-29N 002-10E 227M
Jan 15, 2021 - 09:00 PM EST / 2021.01.16 0200 UTC
Wind: Variable at 1 MPH (1 KT):0
Visibility: greater than 7 mile(s):0
Temperature: 71 F (22 C)
Dew Point: 39 F (4 C)
Relative Humidity: 30%
Pressure (altimeter): 29.83 in. Hg (1010 hPa)
ob: DRRN 160200Z VRB01KT CAVOK 22/04 Q1010 NOSIG
cycle: 2

Station Type Date Time Source
DRRN TAF 2021/01/15 18:21 UTC NOAA

TAF DRRN 151700Z 1518/1624 04010KT 8000 NSC
TEMPO 1606/1609 3000 DU

Example: see airport list